createdAt,value
2022-11-30T00:02:11.613Z,70.38
2022-11-30T00:04:41.473Z,70.35
2022-11-30T00:07:11.418Z,75.93
2022-11-30T00:09:41.201Z,66.90
2022-11-30T00:12:13.765Z,69.85
2022-11-30T00:14:43.587Z,72.38
2022-11-30T00:17:13.524Z,64.55
2022-11-30T00:19:43.262Z,67.30
2022-11-30T00:22:13.139Z,72.25
2022-11-30T00:24:42.928Z,71.32
2022-11-30T00:27:17.759Z,70.65
2022-11-30T00:29:47.559Z,73.20
2022-11-30T00:32:17.349Z,71.18
2022-11-30T00:34:47.296Z,78.72
2022-11-30T00:37:17.554Z,76.40
2022-11-30T00:39:47.334Z,81.93
2022-11-30T00:42:19.894Z,76.38
2022-11-30T00:44:49.681Z,81.60
2022-11-30T00:47:19.500Z,75.22
2022-11-30T00:49:49.352Z,77.40
2022-11-30T00:52:19.227Z,85.50
2022-11-30T00:54:49.251Z,71.97
2022-11-30T00:57:21.743Z,82.32
2022-11-30T00:59:51.566Z,70.68
2022-11-30T01:02:21.495Z,81.43
2022-11-30T01:04:51.304Z,79.05
2022-11-30T01:07:21.174Z,75.13
2022-11-30T01:09:51.004Z,75.22
2022-11-30T01:12:23.532Z,78.57
2022-11-30T01:14:53.293Z,85.60
2022-11-30T01:17:23.060Z,80.88
2022-11-30T01:19:52.817Z,87.82
2022-11-30T01:22:22.635Z,81.88
2022-11-30T01:24:52.428Z,79.32
2022-11-30T01:27:24.838Z,76.85
2022-11-30T01:29:54.692Z,72.85
2022-11-30T01:32:24.532Z,77.13
2022-11-30T01:34:54.308Z,82.13
2022-11-30T01:37:24.112Z,68.35
2022-11-30T01:39:53.913Z,69.00
2022-11-30T01:42:26.364Z,78.57
2022-11-30T01:44:58.160Z,68.68
2022-11-30T01:47:34.638Z,72.43
2022-11-30T01:50:08.593Z,77.00
2022-11-30T01:52:41.333Z,79.60
2022-11-30T01:55:18.789Z,75.28
2022-11-30T01:57:54.286Z,68.53
2022-11-30T02:00:24.538Z,80.32
2022-11-30T02:03:02.447Z,84.03
2022-11-30T02:05:32.902Z,83.35
2022-11-30T02:08:03.662Z,69.00
2022-11-30T02:10:35.987Z,76.35
2022-11-30T02:13:26.604Z,73.53
2022-11-30T02:16:06.155Z,76.45
2022-11-30T02:18:46.218Z,79.38
2022-11-30T02:21:20.025Z,67.05
2022-11-30T02:24:23.143Z,73.25
2022-11-30T02:27:02.620Z,76.18
2022-11-30T02:29:38.838Z,74.40
2022-11-30T02:32:12.914Z,70.13
2022-11-30T02:34:46.389Z,72.85
2022-11-30T02:37:18.779Z,76.43
2022-11-30T02:39:48.596Z,72.85
2022-11-30T02:42:18.802Z,70.10
2022-11-30T02:44:54.355Z,78.13
2022-11-30T02:47:29.188Z,67.97
2022-11-30T02:50:03.776Z,70.43
2022-11-30T02:55:06.803Z,64.07
2022-11-30T02:57:37.049Z,70.13
2022-11-30T03:00:11.967Z,69.97
2022-11-30T03:02:42.583Z,71.97
2022-11-30T03:05:13.126Z,65.22
2022-11-30T03:07:42.942Z,70.00
2022-11-30T03:10:13.727Z,74.25
2022-11-30T03:12:43.484Z,62.28
2022-11-30T03:15:16.931Z,64.28
2022-11-30T03:17:46.785Z,71.20
2022-11-30T03:20:16.622Z,63.72
2022-11-30T03:22:46.424Z,65.38
2022-11-30T03:25:16.311Z,72.47
2022-11-30T03:27:46.129Z,64.45
2022-11-30T03:30:18.979Z,59.97
2022-11-30T03:32:48.764Z,68.53
2022-11-30T03:35:18.712Z,62.42
2022-11-30T03:37:49.546Z,63.95
2022-11-30T03:40:19.928Z,66.68
2022-11-30T03:42:49.644Z,54.78
2022-11-30T03:45:22.052Z,62.88
2022-11-30T03:47:51.905Z,61.65
2022-11-30T03:50:21.749Z,54.83
2022-11-30T03:52:51.708Z,55.33
2022-11-30T03:55:21.473Z,67.22
2022-11-30T03:57:52.156Z,56.22
2022-11-30T04:00:25.036Z,56.40
2022-11-30T04:02:54.820Z,60.35
2022-11-30T04:05:24.992Z,55.65
2022-11-30T04:07:54.961Z,57.53
2022-11-30T04:10:24.855Z,57.22
2022-11-30T04:12:54.605Z,63.50
2022-11-30T04:15:27.192Z,57.25
2022-11-30T04:17:56.982Z,61.25
2022-11-30T04:20:26.820Z,58.80
2022-11-30T04:22:56.624Z,52.67
2022-11-30T04:25:26.624Z,52.97
2022-11-30T04:27:56.442Z,54.70
2022-11-30T04:30:29.129Z,58.33
2022-11-30T04:32:58.889Z,54.50
2022-11-30T04:35:28.712Z,59.13
2022-11-30T04:37:58.548Z,50.72
2022-11-30T04:40:28.362Z,56.42
2022-11-30T04:42:58.197Z,60.28
2022-11-30T04:45:35.194Z,51.22
2022-11-30T04:48:05.912Z,53.35
2022-11-30T04:50:35.824Z,60.58
2022-11-30T04:53:05.868Z,59.92
2022-11-30T04:55:37.192Z,64.65
2022-11-30T04:58:07.098Z,58.70
2022-11-30T05:00:40.383Z,56.72
2022-11-30T05:03:10.447Z,53.60
2022-11-30T05:05:40.426Z,51.92
2022-11-30T05:08:10.264Z,56.22
2022-11-30T05:10:40.152Z,57.45
2022-11-30T05:13:10.296Z,63.20
2022-11-30T05:15:42.808Z,59.63
2022-11-30T05:18:12.588Z,56.53
2022-11-30T05:20:42.407Z,59.72
2022-11-30T05:23:12.237Z,57.60
2022-11-30T05:25:42.081Z,57.65
2022-11-30T05:28:12.177Z,57.70
2022-11-30T05:30:45.831Z,55.40
2022-11-30T05:33:16.121Z,57.37
2022-11-30T05:35:46.500Z,49.45
2022-11-30T05:38:16.384Z,54.03
2022-11-30T05:40:46.205Z,52.58
2022-11-30T05:43:16.099Z,52.30
2022-11-30T05:45:48.535Z,51.42
2022-11-30T05:48:18.450Z,48.00
2022-11-30T05:50:48.218Z,55.65
2022-11-30T05:53:17.992Z,56.13
2022-11-30T05:55:48.200Z,46.70
2022-11-30T05:58:18.096Z,49.33
2022-11-30T06:00:51.924Z,49.13
2022-11-30T06:03:21.964Z,50.33
2022-11-30T06:05:53.173Z,48.38
2022-11-30T06:08:23.043Z,46.35
2022-11-30T06:10:53.447Z,48.45
2022-11-30T06:13:28.618Z,46.45
2022-11-30T06:16:04.588Z,49.22
2022-11-30T06:18:35.463Z,42.13
2022-11-30T06:21:06.664Z,40.03
2022-11-30T06:23:36.928Z,43.83
2022-11-30T06:26:07.492Z,40.60
2022-11-30T06:28:37.852Z,39.85
2022-11-30T06:31:11.907Z,44.75
2022-11-30T06:33:41.786Z,42.88
2022-11-30T06:36:12.508Z,41.97
2022-11-30T06:38:42.293Z,43.10
2022-11-30T06:41:13.131Z,40.97
2022-11-30T06:43:43.056Z,43.72
2022-11-30T06:46:15.607Z,46.83
2022-11-30T06:48:51.361Z,44.22
2022-11-30T06:51:21.918Z,43.85
2022-11-30T06:53:51.792Z,41.50
2022-11-30T06:56:22.118Z,41.25
2022-11-30T06:58:54.387Z,46.13
2022-11-30T07:01:26.979Z,45.53
2022-11-30T07:03:56.824Z,41.78
2022-11-30T07:06:26.620Z,46.83
2022-11-30T07:08:56.424Z,40.47
2022-11-30T07:11:26.265Z,43.00
2022-11-30T07:13:56.036Z,39.33
2022-11-30T07:16:28.654Z,38.30
2022-11-30T07:18:58.689Z,42.28
2022-11-30T07:21:28.520Z,41.00
2022-11-30T07:24:10.809Z,39.33
2022-11-30T07:26:40.699Z,36.78
2022-11-30T07:29:10.537Z,33.90
2022-11-30T07:31:42.974Z,35.78
2022-11-30T07:34:13.449Z,33.03
2022-11-30T07:36:43.288Z,38.65
2022-11-30T07:39:13.195Z,36.33
2022-11-30T07:41:43.396Z,36.67
2022-11-30T07:44:14.155Z,34.95
2022-11-30T07:46:46.535Z,34.95
2022-11-30T07:49:16.899Z,31.10
2022-11-30T07:51:46.897Z,31.80
2022-11-30T07:54:16.660Z,27.08
2022-11-30T07:56:46.443Z,31.27
2022-11-30T07:59:16.367Z,33.85
2022-11-30T08:01:48.780Z,32.40
2022-11-30T08:04:18.610Z,36.45
2022-11-30T08:06:48.433Z,31.65
2022-11-30T08:09:20.858Z,31.85
2022-11-30T08:11:51.687Z,28.25
2022-11-30T08:14:21.544Z,32.80
2022-11-30T08:16:54.957Z,31.90
2022-11-30T08:19:24.776Z,28.90
2022-11-30T08:21:54.600Z,29.58
2022-11-30T08:24:24.434Z,29.95
2022-11-30T08:26:55.020Z,33.60
2022-11-30T08:29:24.840Z,31.58
2022-11-30T08:31:57.660Z,28.23
2022-11-30T08:34:27.480Z,31.92
2022-11-30T08:36:57.250Z,29.98
2022-11-30T08:39:28.709Z,27.75
2022-11-30T08:41:58.578Z,27.13
2022-11-30T08:44:28.361Z,26.35
2022-11-30T08:47:00.741Z,29.30
2022-11-30T08:49:30.992Z,29.35
2022-11-30T08:52:17.969Z,29.17
2022-11-30T08:54:49.849Z,42.08
2022-11-30T08:57:21.535Z,26.67
2022-11-30T08:59:51.500Z,29.73
2022-11-30T09:02:23.998Z,24.95
2022-11-30T09:04:54.060Z,32.70
2022-11-30T09:07:23.857Z,29.98
2022-11-30T09:09:53.734Z,27.85
2022-11-30T09:12:23.661Z,29.80
2022-11-30T09:15:01.471Z,27.25
2022-11-30T09:17:34.545Z,28.52
2022-11-30T09:20:04.671Z,28.70
2022-11-30T09:22:34.459Z,30.73
2022-11-30T09:25:04.256Z,25.98
2022-11-30T09:27:35.197Z,30.52
2022-11-30T09:30:05.150Z,29.67
2022-11-30T09:32:37.586Z,27.80
2022-11-30T09:35:12.582Z,27.65
2022-11-30T09:37:42.977Z,28.40
2022-11-30T09:40:15.766Z,28.30
2022-11-30T09:42:54.548Z,27.77
2022-11-30T09:45:30.098Z,24.52
2022-11-30T09:48:21.645Z,25.75
2022-11-30T09:50:52.920Z,29.25
2022-11-30T09:53:30.033Z,26.10
2022-11-30T09:56:01.586Z,27.05
2022-11-30T09:58:42.216Z,25.92
2022-11-30T10:01:18.766Z,24.58
2022-11-30T10:03:51.791Z,25.70
2022-11-30T10:06:30.846Z,25.95
2022-11-30T10:09:25.755Z,25.40
2022-11-30T10:12:02.856Z,25.80
2022-11-30T10:15:01.080Z,25.15
2022-11-30T10:17:41.202Z,27.35
2022-11-30T10:20:37.629Z,24.15
2022-11-30T10:23:21.309Z,29.58
2022-11-30T10:25:58.399Z,27.67
2022-11-30T10:28:48.169Z,28.70
2022-11-30T10:31:20.118Z,28.13
2022-11-30T10:33:53.132Z,31.45
2022-11-30T10:36:30.388Z,32.97
2022-11-30T10:39:04.550Z,29.45
2022-11-30T10:41:37.637Z,29.10
2022-11-30T10:44:14.553Z,28.75
2022-11-30T10:46:49.465Z,30.67
2022-11-30T10:49:23.512Z,28.45
2022-11-30T10:52:01.541Z,29.02
2022-11-30T10:54:34.091Z,25.48
2022-11-30T10:57:05.716Z,28.30
2022-11-30T10:59:43.834Z,29.80
2022-11-30T11:02:40.013Z,31.33
2022-11-30T11:05:19.709Z,31.52
2022-11-30T11:08:06.399Z,28.40
2022-11-30T11:10:39.131Z,29.80
2022-11-30T11:13:16.706Z,29.27
2022-11-30T11:16:00.226Z,26.30
2022-11-30T11:18:32.087Z,28.42
2022-11-30T11:21:08.159Z,27.70
2022-11-30T11:23:44.936Z,27.65
2022-11-30T11:26:20.303Z,27.13
2022-11-30T11:28:52.320Z,42.47
2022-11-30T11:31:35.988Z,31.25
2022-11-30T11:34:09.969Z,28.38
2022-11-30T11:36:39.774Z,26.27
2022-11-30T11:39:28.859Z,25.95
2022-11-30T11:42:00.451Z,29.00
2022-11-30T11:44:31.778Z,26.85
2022-11-30T11:47:03.868Z,26.40
2022-11-30T11:49:37.744Z,29.17
2022-11-30T11:52:09.191Z,27.00
2022-11-30T11:54:44.933Z,26.45
2022-11-30T11:57:17.384Z,24.02
2022-11-30T11:59:53.055Z,26.38
2022-11-30T12:02:32.189Z,31.25
2022-11-30T12:05:07.304Z,23.88
2022-11-30T12:07:44.446Z,26.45
2022-11-30T12:10:51.387Z,21.13
2022-11-30T12:13:22.089Z,21.88
2022-11-30T12:16:04.404Z,24.63
2022-11-30T12:18:41.007Z,22.15
2022-11-30T12:21:17.316Z,21.90
2022-11-30T12:24:02.550Z,21.17
2022-11-30T12:26:40.854Z,19.83
2022-11-30T12:29:23.162Z,23.52
2022-11-30T12:32:10.186Z,20.73
2022-11-30T12:34:52.279Z,18.85
2022-11-30T12:37:36.216Z,18.55
2022-11-30T12:40:18.525Z,22.30
2022-11-30T12:42:59.452Z,22.05
2022-11-30T12:45:35.186Z,19.95
2022-11-30T12:48:09.563Z,23.70
2022-11-30T12:50:48.919Z,22.85
2022-11-30T12:53:26.697Z,24.55
2022-11-30T12:56:06.132Z,23.08
2022-11-30T12:58:48.137Z,24.40
2022-11-30T13:01:34.454Z,20.58
2022-11-30T13:04:10.595Z,22.13
2022-11-30T13:06:43.705Z,24.27
2022-11-30T13:09:19.755Z,24.60
2022-11-30T13:11:55.351Z,25.65
2022-11-30T13:14:29.855Z,21.90
2022-11-30T13:17:04.045Z,18.27
2022-11-30T13:19:58.524Z,22.52
2022-11-30T13:22:39.537Z,19.15
2022-11-30T13:25:45.016Z,21.00
2022-11-30T13:28:19.657Z,20.80
2022-11-30T13:31:00.159Z,23.13
2022-11-30T13:33:51.718Z,22.73
2022-11-30T13:36:37.244Z,22.52
2022-11-30T13:39:31.536Z,20.58
2022-11-30T13:42:39.604Z,21.70
2022-11-30T13:45:29.128Z,20.17
2022-11-30T13:48:02.221Z,22.13
2022-11-30T13:50:39.875Z,25.75
2022-11-30T13:53:23.395Z,21.50
2022-11-30T13:56:10.976Z,23.77
2022-11-30T13:59:16.353Z,21.42
2022-11-30T14:01:48.821Z,24.15
2022-11-30T14:04:35.887Z,22.58
2022-11-30T14:07:09.826Z,21.63
2022-11-30T14:09:59.163Z,21.10
2022-11-30T14:12:48.283Z,21.27
2022-11-30T14:15:57.571Z,24.58
2022-11-30T14:18:43.285Z,18.30
2022-11-30T14:21:20.210Z,19.77
2022-11-30T14:24:01.759Z,23.70
2022-11-30T14:26:37.686Z,22.70
2022-11-30T14:29:16.939Z,20.17
2022-11-30T14:31:57.038Z,22.17
2022-11-30T14:34:29.992Z,22.58
2022-11-30T14:37:03.160Z,22.73
2022-11-30T14:39:37.061Z,22.23
2022-11-30T14:42:08.351Z,21.98
2022-11-30T14:44:41.997Z,19.30
2022-11-30T14:47:25.336Z,24.40
2022-11-30T14:49:57.632Z,23.33
2022-11-30T14:52:50.856Z,21.23
2022-11-30T14:55:30.028Z,23.08
2022-11-30T14:58:09.794Z,23.20
2022-11-30T15:00:41.465Z,23.15
2022-11-30T15:03:23.107Z,22.98
2022-11-30T15:05:54.989Z,23.45
2022-11-30T15:08:26.349Z,23.60
2022-11-30T15:10:58.550Z,23.38
2022-11-30T15:13:29.320Z,25.00
2022-11-30T15:15:59.254Z,26.08
2022-11-30T15:18:31.694Z,26.73
2022-11-30T15:21:04.041Z,24.35
2022-11-30T15:23:34.068Z,23.88
2022-11-30T15:26:09.117Z,27.08
2022-11-30T15:28:43.703Z,28.67
2022-11-30T15:33:50.519Z,31.65
2022-11-30T15:36:33.155Z,35.03
2022-11-30T15:39:07.006Z,35.95
2022-11-30T15:41:38.374Z,35.00
2022-11-30T15:44:08.524Z,37.33
2022-11-30T15:46:46.318Z,33.95
2022-11-30T15:49:25.340Z,37.33
2022-11-30T15:52:04.738Z,36.42
2022-11-30T15:54:52.684Z,38.83
2022-11-30T15:57:23.230Z,38.00
2022-11-30T16:00:22.367Z,35.83
2022-11-30T16:02:52.546Z,39.67
2022-11-30T16:05:29.146Z,37.45
2022-11-30T16:08:01.389Z,37.75
2022-11-30T16:10:37.343Z,40.40
2022-11-30T16:13:08.152Z,38.25
2022-11-30T16:15:39.538Z,42.70
2022-11-30T16:18:16.813Z,42.35
2022-11-30T16:20:51.511Z,43.25
2022-11-30T16:23:22.119Z,38.92
2022-11-30T16:25:52.984Z,51.78
2022-11-30T16:28:24.203Z,47.83
2022-11-30T16:30:54.419Z,44.03
2022-11-30T16:33:26.013Z,44.15
2022-11-30T16:36:00.967Z,49.78
2022-11-30T16:38:31.195Z,44.75
2022-11-30T16:41:16.228Z,41.70
2022-11-30T16:43:47.208Z,44.60
2022-11-30T16:46:19.273Z,40.50
2022-11-30T16:48:49.473Z,40.60
2022-11-30T16:51:25.444Z,41.03
2022-11-30T16:53:55.443Z,45.00
2022-11-30T16:56:25.787Z,40.65
2022-11-30T16:58:56.122Z,33.10
2022-11-30T17:01:35.679Z,40.33
2022-11-30T17:04:14.423Z,39.92
2022-11-30T17:06:50.631Z,38.45
2022-11-30T17:09:22.897Z,30.65
2022-11-30T17:11:54.082Z,27.77
2022-11-30T17:14:24.035Z,25.70
2022-11-30T17:16:53.926Z,30.05
2022-11-30T17:19:23.802Z,35.97
2022-11-30T17:21:57.529Z,26.50
2022-11-30T17:24:27.319Z,28.50
2022-11-30T17:26:57.174Z,28.40
2022-11-30T17:29:26.948Z,27.98
2022-11-30T17:31:56.728Z,26.40
2022-11-30T17:34:26.532Z,25.52
2022-11-30T17:36:59.181Z,20.02
2022-11-30T17:39:29.016Z,24.77
2022-11-30T17:41:58.849Z,23.25
2022-11-30T17:44:28.670Z,25.17
2022-11-30T17:46:58.706Z,34.47
2022-11-30T17:49:28.431Z,32.88
2022-11-30T17:52:00.859Z,26.30
2022-11-30T17:54:30.589Z,30.17
2022-11-30T17:57:00.364Z,29.83
2022-11-30T17:59:30.256Z,25.55
2022-11-30T18:02:00.050Z,23.58
2022-11-30T18:04:29.842Z,28.67
2022-11-30T18:07:02.242Z,26.10
2022-11-30T18:09:36.624Z,28.40
2022-11-30T18:12:10.775Z,29.20
2022-11-30T18:14:40.615Z,26.40
2022-11-30T18:17:10.559Z,26.35
2022-11-30T18:19:40.454Z,25.35
2022-11-30T18:22:13.359Z,26.02
2022-11-30T18:24:43.232Z,27.38
2022-11-30T18:27:13.093Z,27.90
2022-11-30T18:29:42.858Z,24.63
2022-11-30T18:32:12.722Z,23.75
2022-11-30T18:34:42.588Z,25.40
2022-11-30T18:37:14.929Z,20.95
2022-11-30T18:39:44.709Z,24.70
2022-11-30T18:42:14.547Z,27.33
2022-11-30T18:44:44.286Z,26.58
2022-11-30T18:47:14.094Z,25.13
2022-11-30T18:49:43.904Z,24.45
2022-11-30T18:52:16.681Z,28.23
2022-11-30T18:54:46.917Z,28.67
2022-11-30T18:57:17.067Z,28.75
2022-11-30T18:59:48.740Z,23.42
2022-11-30T19:02:21.668Z,25.25
2022-11-30T19:04:51.729Z,33.28
2022-11-30T19:07:24.208Z,24.45
2022-11-30T19:09:54.041Z,29.75
2022-11-30T19:12:23.820Z,26.13
2022-11-30T19:14:54.166Z,28.33
2022-11-30T19:17:24.052Z,26.40
2022-11-30T19:19:53.916Z,26.73
2022-11-30T19:22:30.151Z,32.03
2022-11-30T19:24:59.995Z,28.90
2022-11-30T19:27:30.015Z,32.30
2022-11-30T19:30:00.042Z,30.85
2022-11-30T19:32:30.131Z,30.05
2022-11-30T19:34:59.999Z,25.73
2022-11-30T19:37:32.425Z,26.08
2022-11-30T19:40:02.207Z,29.98
2022-11-30T19:42:33.049Z,27.00
2022-11-30T19:45:02.901Z,26.73
2022-11-30T19:47:33.151Z,28.48
2022-11-30T19:50:02.911Z,27.75
2022-11-30T19:52:35.312Z,28.17
2022-11-30T19:55:05.171Z,27.25
2022-11-30T19:57:35.016Z,28.85
2022-11-30T20:00:06.558Z,27.52
2022-11-30T20:02:36.485Z,27.65
2022-11-30T20:05:06.451Z,27.52
2022-11-30T20:07:39.057Z,26.10
2022-11-30T20:10:13.244Z,29.25
2022-11-30T20:12:43.406Z,25.02
2022-11-30T20:15:13.891Z,29.85
2022-11-30T20:17:43.673Z,34.38
2022-11-30T20:20:14.785Z,31.33
2022-11-30T20:22:47.224Z,28.58
2022-11-30T20:25:17.077Z,31.30
2022-11-30T20:27:49.549Z,32.53
2022-11-30T20:30:19.711Z,31.70
2022-11-30T20:32:49.464Z,28.58
2022-11-30T20:35:19.439Z,31.40
2022-11-30T20:37:51.838Z,26.60
2022-11-30T20:40:21.996Z,25.70
2022-11-30T20:42:54.019Z,22.63
2022-11-30T20:45:23.802Z,23.60
2022-11-30T20:47:53.689Z,25.08
2022-11-30T20:50:23.639Z,20.05
2022-11-30T20:52:56.043Z,17.73
2022-11-30T20:55:25.808Z,18.88
2022-11-30T20:57:55.988Z,16.40
2022-11-30T21:00:26.047Z,16.48
2022-11-30T21:02:55.863Z,18.42
2022-11-30T21:05:25.695Z,16.65
2022-11-30T21:07:58.182Z,20.65
2022-11-30T21:10:27.983Z,19.48
2022-11-30T21:12:57.925Z,15.05
2022-11-30T21:15:27.717Z,15.77
2022-11-30T21:17:57.457Z,16.27
2022-11-30T21:20:27.340Z,17.83
2022-11-30T21:22:59.917Z,18.85
2022-11-30T21:25:29.855Z,22.60
2022-11-30T21:27:59.814Z,19.00
2022-11-30T21:30:29.634Z,21.02
2022-11-30T21:32:59.415Z,20.58
2022-11-30T21:35:29.215Z,22.17
2022-11-30T21:38:01.615Z,26.92
2022-11-30T21:40:31.452Z,21.45
2022-11-30T21:43:01.273Z,20.48
2022-11-30T21:45:31.041Z,25.15
2022-11-30T21:48:01.092Z,26.38
2022-11-30T21:50:30.955Z,25.40
2022-11-30T21:53:03.381Z,23.35
2022-11-30T21:55:33.825Z,26.58
2022-11-30T21:58:03.624Z,24.15
2022-11-30T22:00:33.360Z,24.80
2022-11-30T22:03:03.239Z,27.52
2022-11-30T22:05:33.015Z,28.42
2022-11-30T22:08:05.513Z,26.10
2022-11-30T22:10:35.327Z,30.58
2022-11-30T22:13:05.157Z,27.50
2022-11-30T22:15:34.980Z,31.10
2022-11-30T22:18:04.874Z,33.70
2022-11-30T22:20:35.055Z,30.73
2022-11-30T22:23:07.399Z,32.75
2022-11-30T22:25:37.130Z,31.55
2022-11-30T22:28:07.252Z,28.65
2022-11-30T22:30:37.128Z,28.25
2022-11-30T22:33:07.164Z,31.02
2022-11-30T22:35:36.932Z,31.05
2022-11-30T22:38:09.344Z,32.28
2022-11-30T22:40:39.125Z,30.83
2022-11-30T22:43:08.902Z,32.22
2022-11-30T22:45:38.687Z,34.03
2022-11-30T22:48:08.968Z,32.20
2022-11-30T22:50:38.768Z,31.48
2022-11-30T22:53:11.199Z,30.77
2022-11-30T22:55:46.648Z,32.28
2022-11-30T22:58:17.999Z,32.45
2022-11-30T23:00:47.753Z,32.55
2022-11-30T23:03:17.697Z,36.53
2022-11-30T23:05:47.569Z,36.97
2022-11-30T23:08:20.040Z,34.80
2022-11-30T23:10:49.915Z,35.63
2022-11-30T23:13:19.677Z,32.40
2022-11-30T23:15:50.609Z,36.05
2022-11-30T23:18:20.549Z,36.20
2022-11-30T23:20:50.294Z,34.08
2022-11-30T23:23:22.718Z,33.05
2022-11-30T23:25:53.262Z,37.80
2022-11-30T23:28:23.131Z,34.80
2022-11-30T23:30:52.883Z,36.85
2022-11-30T23:33:22.694Z,32.47
2022-11-30T23:35:52.495Z,37.03
2022-11-30T23:38:24.800Z,36.03
2022-11-30T23:40:56.006Z,34.38
2022-11-30T23:43:25.798Z,35.88
2022-11-30T23:45:55.549Z,37.05
2022-11-30T23:48:25.416Z,32.80
2022-11-30T23:50:55.776Z,35.75
2022-11-30T23:53:28.689Z,34.97
2022-11-30T23:55:59.426Z,38.88
2022-11-30T23:58:29.151Z,35.22
